sensor_id;sensor_type;location;lat;lon;timestamp;noise_LAeq;noise_LA_min;noise_LA_max;noise_LA01;noise_LA95
69611;Laerm;56817;52.302;4.844;2022-11-20T00:00:08;47.63;43.80;54.31;;
69611;Laerm;56817;52.302;4.844;2022-11-20T00:00:19;48.07;44.39;52.93;;
69611;Laerm;56817;52.302;4.844;2022-11-20T00:00:29;47.26;44.19;51.09;;
69611;Laerm;56817;52.302;4.844;2022-11-20T00:00:39;46.97;43.67;50.21;;
69611;Laerm;56817;52.302;4.844;2022-11-20T00:00:50;47.40;44.58;49.83;;
69611;Laerm;56817;52.302;4.844;2022-11-20T00:01:10;47.92;44.08;51.92;;
69611;Laerm;56817;52.302;4.844;2022-11-20T00:01:22;45.68;41.50;49.04;;
69611;Laerm;56817;52.302;4.844;2022-11-20T00:01:33;45.07;42.11;51.41;;
69611;Laerm;56817;52.302;4.844;2022-11-20T00:01:44;44.42;41.34;47.76;;
69611;Laerm;56817;52.302;4.844;2022-11-20T00:01:54;44.17;40.93;47.53;;
69611;Laerm;56817;52.302;4.844;2022-11-20T00:02:04;44.35;41.67;47.01;;
69611;Laerm;56817;52.302;4.844;2022-11-20T00:02:14;45.33;43.25;47.71;;
69611;Laerm;56817;52.302;4.844;2022-11-20T00:02:25;46.13;43.40;49.00;;
69611;Laerm;56817;52.302;4.844;2022-11-20T00:02:35;45.60;42.84;49.61;;
69611;Laerm;56817;52.302;4.844;2022-11-20T00:02:45;44.95;42.01;48.67;;
69611;Laerm;56817;52.302;4.844;2022-11-20T00:02:55;45.80;42.96;50.78;;
69611;Laerm;56817;52.302;4.844;2022-11-20T00:03:06;45.82;42.48;50.26;;
69611;Laerm;56817;52.302;4.844;2022-11-20T00:03:16;43.84;41.23;46.61;;
69611;Laerm;56817;52.302;4.844;2022-11-20T00:03:27;44.48;41.87;47.54;;
69611;Laerm;56817;52.302;4.844;2022-11-20T00:03:37;45.35;42.74;48.63;;
69611;Laerm;56817;52.302;4.844;2022-11-20T00:03:48;44.87;42.58;47.62;;
69611;Laerm;56817;52.302;4.844;2022-11-20T00:03:58;44.86;41.57;47.12;;
69611;Laerm;56817;52.302;4.844;2022-11-20T00:04:10;45.86;42.29;57.85;;
69611;Laerm;56817;52.302;4.844;2022-11-20T00:04:20;46.28;42.15;50.16;;
69611;Laerm;56817;52.302;4.844;2022-11-20T00:04:30;44.78;41.59;48.57;;
69611;Laerm;56817;52.302;4.844;2022-11-20T00:04:41;44.18;41.95;46.87;;
69611;Laerm;56817;52.302;4.844;2022-11-20T00:04:51;43.81;40.21;47.67;;
69611;Laerm;56817;52.302;4.844;2022-11-20T00:05:01;45.06;42.04;49.88;;
69611;Laerm;56817;52.302;4.844;2022-11-20T00:05:11;45.65;42.77;48.20;;
69611;Laerm;56817;52.302;4.844;2022-11-20T00:05:22;49.35;43.33;57.98;;
69611;Laerm;56817;52.302;4.844;2022-11-20T00:05:32;46.28;43.50;49.72;;
69611;Laerm;56817;52.302;4.844;2022-11-20T00:05:43;44.56;42.28;49.44;;
69611;Laerm;56817;52.302;4.844;2022-11-20T00:05:53;45.15;42.45;47.91;;
69611;Laerm;56817;52.302;4.844;2022-11-20T00:06:05;44.41;41.13;46.99;;
69611;Laerm;56817;52.302;4.844;2022-11-20T00:06:16;44.93;42.10;49.15;;
69611;Laerm;56817;52.302;4.844;2022-11-20T00:06:27;45.34;41.72;48.12;;
69611;Laerm;56817;52.302;4.844;2022-11-20T00:06:38;43.87;40.35;46.61;;
69611;Laerm;56817;52.302;4.844;2022-11-20T00:06:48;44.79;41.46;48.55;;
69611;Laerm;56817;52.302;4.844;2022-11-20T00:06:58;43.46;39.91;46.63;;
69611;Laerm;56817;52.302;4.844;2022-11-20T00:07:08;45.36;41.49;50.94;;
69611;Laerm;56817;52.302;4.844;2022-11-20T00:07:19;44.89;42.11;49.77;;
69611;Laerm;56817;52.302;4.844;2022-11-20T00:07:29;44.31;40.92;47.28;;
69611;Laerm;56817;52.302;4.844;2022-11-20T00:07:39;43.26;40.72;46.18;;
69611;Laerm;56817;52.302;4.844;2022-11-20T00:07:49;43.26;40.35;46.59;;
69611;Laerm;56817;52.302;4.844;2022-11-20T00:08:00;43.53;40.62;47.08;;
69611;Laerm;56817;52.302;4.844;2022-11-20T00:08:10;45.54;42.35;49.00;;
69611;Laerm;56817;52.302;4.844;2022-11-20T00:08:20;45.47;42.13;51.03;;
69611;Laerm;56817;52.302;4.844;2022-11-20T00:08:31;46.68;42.94;51.05;;
69611;Laerm;56817;52.302;4.844;2022-11-20T00:08:41;46.27;43.20;50.27;;
69611;Laerm;56817;52.302;4.844;2022-11-20T00:08:53;43.85;40.93;48.11;;
69611;Laerm;56817;52.302;4.844;2022-11-20T00:09:03;45.15;40.85;48.27;;
69611;Laerm;56817;52.302;4.844;2022-11-20T00:09:15;43.91;41.34;47.49;;
69611;Laerm;56817;52.302;4.844;2022-11-20T00:09:25;44.77;42.01;49.24;;
69611;Laerm;56817;52.302;4.844;2022-11-20T00:09:35;45.43;41.62;49.11;;
69611;Laerm;56817;52.302;4.844;2022-11-20T00:09:46;46.27;42.64;51.53;;
69611;Laerm;56817;52.302;4.844;2022-11-20T00:09:56;46.87;44.06;52.34;;
69611;Laerm;56817;52.302;4.844;2022-11-20T00:10:06;45.17;42.12;48.92;;
69611;Laerm;56817;52.302;4.844;2022-11-20T00:10:17;45.43;42.02;52.21;;
69611;Laerm;56817;52.302;4.844;2022-11-20T00:10:27;44.93;42.04;47.71;;
69611;Laerm;56817;52.302;4.844;2022-11-20T00:10:38;45.49;42.65;50.92;;
69611;Laerm;56817;52.302;4.844;2022-11-20T00:10:48;44.90;41.93;48.38;;
69611;Laerm;56817;52.302;4.844;2022-11-20T00:11:12;44.93;40.68;50.03;;
69611;Laerm;56817;52.302;4.844;2022-11-20T00:11:23;44.60;41.40;48.07;;
69611;Laerm;56817;52.302;4.844;2022-11-20T00:11:34;44.57;41.65;48.45;;
69611;Laerm;56817;52.302;4.844;2022-11-20T00:11:44;44.56;42.22;46.95;;
69611;Laerm;56817;52.302;4.844;2022-11-20T00:11:54;45.51;42.86;48.93;;
69611;Laerm;56817;52.302;4.844;2022-11-20T00:12:05;45.73;42.73;48.45;;
69611;Laerm;56817;52.302;4.844;2022-11-20T00:12:15;45.99;43.26;50.14;;
69611;Laerm;56817;52.302;4.844;2022-11-20T00:12:26;46.09;42.89;49.53;;
69611;Laerm;56817;52.302;4.844;2022-11-20T00:12:36;44.56;41.04;47.25;;
69611;Laerm;56817;52.302;4.844;2022-11-20T00:12:46;44.61;40.80;48.67;;
69611;Laerm;56817;52.302;4.844;2022-11-20T00:12:59;46.97;43.43;51.42;;
69611;Laerm;56817;52.302;4.844;2022-11-20T00:13:09;45.53;41.91;52.22;;
69611;Laerm;56817;52.302;4.844;2022-11-20T00:13:19;46.12;42.96;52.25;;
69611;Laerm;56817;52.302;4.844;2022-11-20T00:13:30;44.19;41.55;47.19;;
69611;Laerm;56817;52.302;4.844;2022-11-20T00:13:41;43.36;40.76;45.64;;
69611;Laerm;56817;52.302;4.844;2022-11-20T00:13:52;43.44;39.92;46.88;;
69611;Laerm;56817;52.302;4.844;2022-11-20T00:14:02;43.25;40.56;46.27;;
69611;Laerm;56817;52.302;4.844;2022-11-20T00:14:12;43.05;39.78;49.62;;
69611;Laerm;56817;52.302;4.844;2022-11-20T00:14:23;43.74;40.84;50.51;;
69611;Laerm;56817;52.302;4.844;2022-11-20T00:14:33;44.34;40.76;48.88;;
69611;Laerm;56817;52.302;4.844;2022-11-20T00:14:43;44.57;40.77;50.27;;
69611;Laerm;56817;52.302;4.844;2022-11-20T00:14:54;45.17;40.78;49.37;;
69611;Laerm;56817;52.302;4.844;2022-11-20T00:15:04;43.31;40.69;47.36;;
69611;Laerm;56817;52.302;4.844;2022-11-20T00:15:15;44.04;41.91;46.39;;
69611;Laerm;56817;52.302;4.844;2022-11-20T00:15:25;45.53;42.39;49.17;;
69611;Laerm;56817;52.302;4.844;2022-11-20T00:15:35;45.47;42.56;49.12;;
69611;Laerm;56817;52.302;4.844;2022-11-20T00:15:45;46.27;43.49;51.20;;
69611;Laerm;56817;52.302;4.844;2022-11-20T00:15:56;45.59;43.21;48.24;;
69611;Laerm;56817;52.302;4.844;2022-11-20T00:16:08;44.74;41.57;48.00;;
69611;Laerm;56817;52.302;4.844;2022-11-20T00:16:20;44.26;41.89;47.30;;
69611;Laerm;56817;52.302;4.844;2022-11-20T00:16:31;45.15;42.39;50.70;;
69611;Laerm;56817;52.302;4.844;2022-11-20T00:16:42;43.71;41.42;46.40;;
69611;Laerm;56817;52.302;4.844;2022-11-20T00:16:52;44.51;41.88;47.63;;
69611;Laerm;56817;52.302;4.844;2022-11-20T00:17:03;44.68;42.09;47.93;;
69611;Laerm;56817;52.302;4.844;2022-11-20T00:17:13;45.72;41.74;48.75;;
69611;Laerm;56817;52.302;4.844;2022-11-20T00:17:23;45.74;43.49;48.42;;
69611;Laerm;56817;52.302;4.844;2022-11-20T00:17:34;46.26;42.60;50.73;;
69611;Laerm;56817;52.302;4.844;2022-11-20T00:17:44;46.37;42.42;49.29;;
69611;Laerm;56817;52.302;4.844;2022-11-20T00:17:54;46.85;44.10;49.60;;
69611;Laerm;56817;52.302;4.844;2022-11-20T00:18:04;44.71;41.72;47.25;;
69611;Laerm;56817;52.302;4.844;2022-11-20T00:18:15;45.21;42.89;47.54;;
69611;Laerm;56817;52.302;4.844;2022-11-20T00:18:25;46.49;43.26;51.78;;
69611;Laerm;56817;52.302;4.844;2022-11-20T00:18:36;45.75;42.46;52.17;;
69611;Laerm;56817;52.302;4.844;2022-11-20T00:18:46;45.53;42.89;48.86;;
69611;Laerm;56817;52.302;4.844;2022-11-20T00:18:57;45.88;43.23;48.93;;
69611;Laerm;56817;52.302;4.844;2022-11-20T00:19:07;47.85;44.54;51.34;;
69611;Laerm;56817;52.302;4.844;2022-11-20T00:19:17;47.15;43.75;51.07;;
69611;Laerm;56817;52.302;4.844;2022-11-20T00:19:28;46.36;43.34;49.53;;
69611;Laerm;56817;52.302;4.844;2022-11-20T00:19:38;45.04;41.74;48.39;;
69611;Laerm;56817;52.302;4.844;2022-11-20T00:19:48;44.16;41.32;46.62;;
69611;Laerm;56817;52.302;4.844;2022-11-20T00:19:58;43.37;41.17;45.97;;
69611;Laerm;56817;52.302;4.844;2022-11-20T00:20:09;44.00;41.56;46.15;;
69611;Laerm;56817;52.302;4.844;2022-11-20T00:20:19;44.19;41.08;46.74;;
69611;Laerm;56817;52.302;4.844;2022-11-20T00:20:30;44.56;41.98;47.59;;
69611;Laerm;56817;52.302;4.844;2022-11-20T00:20:40;44.91;41.77;47.93;;
69611;Laerm;56817;52.302;4.844;2022-11-20T00:20:50;46.38;42.62;50.62;;
69611;Laerm;56817;52.302;4.844;2022-11-20T00:21:04;46.06;42.67;49.44;;
69611;Laerm;56817;52.302;4.844;2022-11-20T00:21:16;46.17;42.64;50.42;;
69611;Laerm;56817;52.302;4.844;2022-11-20T00:21:27;45.78;43.06;48.88;;
69611;Laerm;56817;52.302;4.844;2022-11-20T00:21:38;46.86;44.04;50.68;;
69611;Laerm;56817;52.302;4.844;2022-11-20T00:21:48;46.03;43.15;48.40;;
69611;Laerm;56817;52.302;4.844;2022-11-20T00:22:01;47.27;44.15;50.41;;
69611;Laerm;56817;52.302;4.844;2022-11-20T00:22:11;46.23;43.51;48.85;;
69611;Laerm;56817;52.302;4.844;2022-11-20T00:22:21;47.92;42.56;56.21;;
69611;Laerm;56817;52.302;4.844;2022-11-20T00:22:32;50.47;45.77;61.99;;
69611;Laerm;56817;52.302;4.844;2022-11-20T00:22:42;47.78;44.57;50.72;;
69611;Laerm;56817;52.302;4.844;2022-11-20T00:22:52;47.52;43.45;53.35;;
69611;Laerm;56817;52.302;4.844;2022-11-20T00:23:03;46.15;42.88;49.46;;
69611;Laerm;56817;52.302;4.844;2022-11-20T00:23:13;46.04;42.27;48.73;;
69611;Laerm;56817;52.302;4.844;2022-11-20T00:23:23;44.23;40.55;48.46;;
69611;Laerm;56817;52.302;4.844;2022-11-20T00:23:33;44.74;40.32;50.57;;
69611;Laerm;56817;52.302;4.844;2022-11-20T00:23:44;46.43;42.66;50.34;;
69611;Laerm;56817;52.302;4.844;2022-11-20T00:23:55;44.17;41.21;47.14;;
69611;Laerm;56817;52.302;4.844;2022-11-20T00:24:05;46.14;42.64;50.94;;
69611;Laerm;56817;52.302;4.844;2022-11-20T00:24:18;46.17;43.17;50.60;;
69611;Laerm;56817;52.302;4.844;2022-11-20T00:24:28;46.66;43.91;50.10;;
69611;Laerm;56817;52.302;4.844;2022-11-20T00:24:38;46.52;43.21;51.71;;
69611;Laerm;56817;52.302;4.844;2022-11-20T00:24:49;50.26;46.42;56.63;;
69611;Laerm;56817;52.302;4.844;2022-11-20T00:24:59;47.13;43.77;51.01;;
69611;Laerm;56817;52.302;4.844;2022-11-20T00:25:09;45.87;41.01;50.94;;
69611;Laerm;56817;52.302;4.844;2022-11-20T00:25:19;45.21;40.40;51.60;;
69611;Laerm;56817;52.302;4.844;2022-11-20T00:25:30;45.27;41.26;49.52;;
69611;Laerm;56817;52.302;4.844;2022-11-20T00:25:40;48.20;44.47;51.81;;
69611;Laerm;56817;52.302;4.844;2022-11-20T00:25:50;46.58;42.64;49.81;;
69611;Laerm;56817;52.302;4.844;2022-11-20T00:26:01;43.49;40.45;49.13;;
69611;Laerm;56817;52.302;4.844;2022-11-20T00:26:13;43.90;41.10;47.05;;
69611;Laerm;56817;52.302;4.844;2022-11-20T00:26:25;43.80;41.47;48.49;;
69611;Laerm;56817;52.302;4.844;2022-11-20T00:26:35;44.02;41.44;47.55;;
69611;Laerm;56817;52.302;4.844;2022-11-20T00:26:46;44.62;41.82;47.40;;
69611;Laerm;56817;52.302;4.844;2022-11-20T00:26:56;47.06;43.51;50.34;;
69611;Laerm;56817;52.302;4.844;2022-11-20T00:27:06;47.99;43.90;53.60;;
69611;Laerm;56817;52.302;4.844;2022-11-20T00:27:16;46.22;43.08;48.86;;
69611;Laerm;56817;52.302;4.844;2022-11-20T00:27:27;45.65;42.38;49.99;;
69611;Laerm;56817;52.302;4.844;2022-11-20T00:27:37;44.74;41.26;49.42;;
69611;Laerm;56817;52.302;4.844;2022-11-20T00:27:47;45.79;42.27;50.29;;
69611;Laerm;56817;52.302;4.844;2022-11-20T00:27:58;47.13;44.25;51.50;;
69611;Laerm;56817;52.302;4.844;2022-11-20T00:28:08;47.71;44.80;51.18;;
69611;Laerm;56817;52.302;4.844;2022-11-20T00:28:18;46.85;43.16;49.86;;
69611;Laerm;56817;52.302;4.844;2022-11-20T00:28:28;45.71;42.47;51.15;;
69611;Laerm;56817;52.302;4.844;2022-11-20T00:28:39;44.02;41.03;47.31;;
69611;Laerm;56817;52.302;4.844;2022-11-20T00:28:50;45.58;41.92;49.42;;
69611;Laerm;56817;52.302;4.844;2022-11-20T00:29:00;45.27;42.20;49.21;;
69611;Laerm;56817;52.302;4.844;2022-11-20T00:29:11;43.09;40.67;45.56;;
69611;Laerm;56817;52.302;4.844;2022-11-20T00:29:21;43.44;40.52;45.78;;
69611;Laerm;56817;52.302;4.844;2022-11-20T00:29:31;44.82;40.02;51.81;;
69611;Laerm;56817;52.302;4.844;2022-11-20T00:29:42;44.73;40.56;49.40;;
69611;Laerm;56817;52.302;4.844;2022-11-20T00:29:52;43.72;41.29;47.69;;
69611;Laerm;56817;52.302;4.844;2022-11-20T00:30:03;43.46;40.15;46.08;;
69611;Laerm;56817;52.302;4.844;2022-11-20T00:30:13;43.61;40.36;46.90;;
69611;Laerm;56817;52.302;4.844;2022-11-20T00:30:23;43.63;40.30;48.04;;
69611;Laerm;56817;52.302;4.844;2022-11-20T00:30:34;44.19;40.59;49.25;;
69611;Laerm;56817;52.302;4.844;2022-11-20T00:30:44;45.21;42.24;50.63;;
69611;Laerm;56817;52.302;4.844;2022-11-20T00:31:04;44.80;40.58;51.49;;
69611;Laerm;56817;52.302;4.844;2022-11-20T00:31:15;44.17;39.30;49.93;;
69611;Laerm;56817;52.302;4.844;2022-11-20T00:31:26;43.83;41.14;47.94;;
69611;Laerm;56817;52.302;4.844;2022-11-20T00:31:36;44.91;40.74;50.88;;
69611;Laerm;56817;52.302;4.844;2022-11-20T00:31:46;45.90;42.18;50.66;;
69611;Laerm;56817;52.302;4.844;2022-11-20T00:31:56;47.81;44.26;53.98;;
69611;Laerm;56817;52.302;4.844;2022-11-20T00:32:07;48.56;44.89;52.67;;
69611;Laerm;56817;52.302;4.844;2022-11-20T00:32:17;48.35;45.20;52.95;;
69611;Laerm;56817;52.302;4.844;2022-11-20T00:32:27;49.56;43.49;55.69;;
69611;Laerm;56817;52.302;4.844;2022-11-20T00:32:37;47.53;43.66;52.70;;
69611;Laerm;56817;52.302;4.844;2022-11-20T00:32:48;45.94;42.58;49.61;;
69611;Laerm;56817;52.302;4.844;2022-11-20T00:32:58;48.20;44.75;53.71;;
69611;Laerm;56817;52.302;4.844;2022-11-20T00:33:08;46.32;42.29;50.46;;
69611;Laerm;56817;52.302;4.844;2022-11-20T00:33:19;45.98;41.57;49.52;;
69611;Laerm;56817;52.302;4.844;2022-11-20T00:33:30;46.77;43.04;57.13;;
69611;Laerm;56817;52.302;4.844;2022-11-20T00:33:41;46.20;42.51;54.54;;
69611;Laerm;56817;52.302;4.844;2022-11-20T00:33:51;44.10;40.72;47.05;;
69611;Laerm;56817;52.302;4.844;2022-11-20T00:34:03;45.04;41.35;49.05;;
69611;Laerm;56817;52.302;4.844;2022-11-20T00:34:13;45.95;43.04;51.43;;
69611;Laerm;56817;52.302;4.844;2022-11-20T00:34:23;45.31;41.78;49.32;;
69611;Laerm;56817;52.302;4.844;2022-11-20T00:34:33;47.70;44.55;51.08;;
69611;Laerm;56817;52.302;4.844;2022-11-20T00:34:44;46.22;42.53;50.18;;
69611;Laerm;56817;52.302;4.844;2022-11-20T00:34:54;45.74;42.58;48.67;;
69611;Laerm;56817;52.302;4.844;2022-11-20T00:35:04;45.50;42.46;49.70;;
69611;Laerm;56817;52.302;4.844;2022-11-20T00:35:15;44.53;41.37;47.61;;
69611;Laerm;56817;52.302;4.844;2022-11-20T00:35:25;45.60;42.13;48.96;;
69611;Laerm;56817;52.302;4.844;2022-11-20T00:35:36;46.83;43.13;50.81;;
69611;Laerm;56817;52.302;4.844;2022-11-20T00:35:46;46.22;42.00;51.70;;
69611;Laerm;56817;52.302;4.844;2022-11-20T00:36:15;43.62;39.10;47.43;;
69611;Laerm;56817;52.302;4.844;2022-11-20T00:36:26;44.93;40.81;51.03;;
69611;Laerm;56817;52.302;4.844;2022-11-20T00:36:36;46.53;43.23;50.68;;
69611;Laerm;56817;52.302;4.844;2022-11-20T00:36:47;46.59;42.97;51.16;;
69611;Laerm;56817;52.302;4.844;2022-11-20T00:36:57;47.65;44.15;52.55;;
69611;Laerm;56817;52.302;4.844;2022-11-20T00:37:07;44.95;40.78;56.02;;
69611;Laerm;56817;52.302;4.844;2022-11-20T00:37:17;45.30;40.59;50.05;;
69611;Laerm;56817;52.302;4.844;2022-11-20T00:37:28;44.03;41.12;47.65;;
69611;Laerm;56817;52.302;4.844;2022-11-20T00:37:38;45.77;41.67;50.50;;
69611;Laerm;56817;52.302;4.844;2022-11-20T00:37:48;44.36;41.03;49.15;;
69611;Laerm;56817;52.302;4.844;2022-11-20T00:37:58;44.55;40.41;51.34;;
69611;Laerm;56817;52.302;4.844;2022-11-20T00:38:09;45.60;41.76;48.76;;
69611;Laerm;56817;52.302;4.844;2022-11-20T00:38:19;47.01;43.43;54.40;;
69611;Laerm;56817;52.302;4.844;2022-11-20T00:38:30;46.19;42.53;49.12;;
69611;Laerm;56817;52.302;4.844;2022-11-20T00:38:40;46.15;42.51;51.48;;
69611;Laerm;56817;52.302;4.844;2022-11-20T00:38:51;44.65;42.08;47.52;;
69611;Laerm;56817;52.302;4.844;2022-11-20T00:39:02;44.70;42.07;48.14;;
69611;Laerm;56817;52.302;4.844;2022-11-20T00:39:12;45.13;42.47;47.62;;
69611;Laerm;56817;52.302;4.844;2022-11-20T00:39:22;45.38;42.40;48.51;;
69611;Laerm;56817;52.302;4.844;2022-11-20T00:39:32;44.36;41.32;48.48;;
69611;Laerm;56817;52.302;4.844;2022-11-20T00:39:43;43.99;40.78;47.93;;
69611;Laerm;56817;52.302;4.844;2022-11-20T00:39:53;44.39;41.38;48.31;;
69611;Laerm;56817;52.302;4.844;2022-11-20T00:40:03;43.83;40.31;48.17;;
69611;Laerm;56817;52.302;4.844;2022-11-20T00:40:14;44.18;41.17;46.67;;
69611;Laerm;56817;52.302;4.844;2022-11-20T00:40:24;44.39;41.51;47.96;;
69611;Laerm;56817;52.302;4.844;2022-11-20T00:40:34;44.06;40.73;47.51;;
69611;Laerm;56817;52.302;4.844;2022-11-20T00:40:44;43.61;40.94;46.79;;
69611;Laerm;56817;52.302;4.844;2022-11-20T00:40:58;46.75;43.12;50.60;;
69611;Laerm;56817;52.302;4.844;2022-11-20T00:41:10;45.07;40.19;49.90;;
69611;Laerm;56817;52.302;4.844;2022-11-20T00:41:20;44.27;41.01;47.46;;
69611;Laerm;56817;52.302;4.844;2022-11-20T00:41:31;43.82;40.69;46.53;;
69611;Laerm;56817;52.302;4.844;2022-11-20T00:41:41;45.04;41.14;49.09;;
69611;Laerm;56817;52.302;4.844;2022-11-20T00:41:51;45.53;42.56;49.09;;
69611;Laerm;56817;52.302;4.844;2022-11-20T00:42:01;45.57;42.03;49.90;;
69611;Laerm;56817;52.302;4.844;2022-11-20T00:42:12;45.81;42.75;49.07;;
69611;Laerm;56817;52.302;4.844;2022-11-20T00:42:22;45.47;42.35;49.32;;
69611;Laerm;56817;52.302;4.844;2022-11-20T00:42:32;44.77;41.95;47.71;;
69611;Laerm;56817;52.302;4.844;2022-11-20T00:42:43;46.57;43.27;49.94;;
69611;Laerm;56817;52.302;4.844;2022-11-20T00:42:54;45.64;42.07;48.96;;
69611;Laerm;56817;52.302;4.844;2022-11-20T00:43:04;46.57;42.64;50.34;;
69611;Laerm;56817;52.302;4.844;2022-11-20T00:43:14;43.67;40.98;46.66;;
69611;Laerm;56817;52.302;4.844;2022-11-20T00:43:25;43.10;39.86;46.26;;
69611;Laerm;56817;52.302;4.844;2022-11-20T00:43:36;42.89;39.46;46.51;;
69611;Laerm;56817;52.302;4.844;2022-11-20T00:43:46;43.13;39.56;47.63;;
69611;Laerm;56817;52.302;4.844;2022-11-20T00:43:57;43.60;39.58;46.59;;
69611;Laerm;56817;52.302;4.844;2022-11-20T00:44:07;43.55;40.11;46.50;;
69611;Laerm;56817;52.302;4.844;2022-11-20T00:44:17;43.93;41.30;47.59;;
69611;Laerm;56817;52.302;4.844;2022-11-20T00:44:27;44.65;41.60;47.65;;
69611;Laerm;56817;52.302;4.844;2022-11-20T00:44:38;44.98;41.27;48.48;;
69611;Laerm;56817;52.302;4.844;2022-11-20T00:44:48;44.61;40.85;48.54;;
69611;Laerm;56817;52.302;4.844;2022-11-20T00:44:58;44.23;40.90;47.41;;
69611;Laerm;56817;52.302;4.844;2022-11-20T00:45:09;42.53;39.33;45.00;;
69611;Laerm;56817;52.302;4.844;2022-11-20T00:45:19;44.63;41.99;48.26;;
69611;Laerm;56817;52.302;4.844;2022-11-20T00:45:29;42.69;39.28;45.38;;
69611;Laerm;56817;52.302;4.844;2022-11-20T00:45:39;42.48;39.06;45.56;;
69611;Laerm;56817;52.302;4.844;2022-11-20T00:45:50;42.86;40.14;45.94;;
69611;Laerm;56817;52.302;4.844;2022-11-20T00:46:01;45.67;41.67;51.28;;
69611;Laerm;56817;52.302;4.844;2022-11-20T00:46:14;46.41;42.86;54.88;;
69611;Laerm;56817;52.302;4.844;2022-11-20T00:46:25;46.57;43.30;50.06;;
69611;Laerm;56817;52.302;4.844;2022-11-20T00:46:36;47.38;42.69;51.65;;
69611;Laerm;56817;52.302;4.844;2022-11-20T00:46:46;46.79;43.39;51.40;;
69611;Laerm;56817;52.302;4.844;2022-11-20T00:46:57;45.44;41.53;49.43;;
69611;Laerm;56817;52.302;4.844;2022-11-20T00:47:07;43.17;40.60;47.88;;
69611;Laerm;56817;52.302;4.844;2022-11-20T00:47:17;45.24;41.41;50.36;;
69611;Laerm;56817;52.302;4.844;2022-11-20T00:47:28;45.11;42.22;47.64;;
69611;Laerm;56817;52.302;4.844;2022-11-20T00:47:38;46.06;42.43;49.55;;
69611;Laerm;56817;52.302;4.844;2022-11-20T00:47:48;46.13;42.39;49.54;;
69611;Laerm;56817;52.302;4.844;2022-11-20T00:47:58;45.84;40.96;51.41;;
69611;Laerm;56817;52.302;4.844;2022-11-20T00:48:09;44.18;41.21;49.59;;
69611;Laerm;56817;52.302;4.844;2022-11-20T00:48:19;43.87;40.94;47.59;;
69611;Laerm;56817;52.302;4.844;2022-11-20T00:48:29;42.12;38.43;45.45;;
69611;Laerm;56817;52.302;4.844;2022-11-20T00:48:40;42.74;38.04;46.79;;
69611;Laerm;56817;52.302;4.844;2022-11-20T00:48:50;43.40;40.28;46.86;;
69611;Laerm;56817;52.302;4.844;2022-11-20T00:49:00;41.76;38.70;45.41;;
69611;Laerm;56817;52.302;4.844;2022-11-20T00:49:11;43.87;40.70;47.29;;
69611;Laerm;56817;52.302;4.844;2022-11-20T00:49:21;43.30;38.98;47.69;;
69611;Laerm;56817;52.302;4.844;2022-11-20T00:49:31;43.68;40.22;48.56;;
69611;Laerm;56817;52.302;4.844;2022-11-20T00:49:41;45.80;41.99;55.52;;
69611;Laerm;56817;52.302;4.844;2022-11-20T00:49:52;45.37;42.50;48.53;;
69611;Laerm;56817;52.302;4.844;2022-11-20T00:50:02;44.49;41.40;49.40;;
69611;Laerm;56817;52.302;4.844;2022-11-20T00:50:12;42.31;39.08;45.25;;
69611;Laerm;56817;52.302;4.844;2022-11-20T00:50:23;42.23;38.74;45.18;;
69611;Laerm;56817;52.302;4.844;2022-11-20T00:50:33;42.72;39.40;48.18;;
69611;Laerm;56817;52.302;4.844;2022-11-20T00:50:43;41.86;38.64;47.13;;
69611;Laerm;56817;52.302;4.844;2022-11-20T00:50:53;42.43;39.94;46.19;;
69611;Laerm;56817;52.302;4.844;2022-11-20T00:51:04;42.68;38.47;47.72;;
69611;Laerm;56817;52.302;4.844;2022-11-20T00:51:16;43.67;40.19;46.81;;
69611;Laerm;56817;52.302;4.844;2022-11-20T00:51:27;45.74;42.21;49.69;;
69611;Laerm;56817;52.302;4.844;2022-11-20T00:51:37;44.11;39.95;48.48;;
69611;Laerm;56817;52.302;4.844;2022-11-20T00:51:47;42.77;39.18;48.26;;
69611;Laerm;56817;52.302;4.844;2022-11-20T00:51:58;43.81;39.86;50.23;;
69611;Laerm;56817;52.302;4.844;2022-11-20T00:52:08;41.37;38.08;47.36;;
69611;Laerm;56817;52.302;4.844;2022-11-20T00:52:18;41.97;38.99;45.95;;
69611;Laerm;56817;52.302;4.844;2022-11-20T00:52:28;44.57;39.63;49.47;;
69611;Laerm;56817;52.302;4.844;2022-11-20T00:52:39;43.68;40.27;46.45;;
69611;Laerm;56817;52.302;4.844;2022-11-20T00:52:49;43.08;39.89;51.01;;
69611;Laerm;56817;52.302;4.844;2022-11-20T00:52:59;40.00;36.91;45.30;;
69611;Laerm;56817;52.302;4.844;2022-11-20T00:53:09;40.26;37.56;43.72;;
69611;Laerm;56817;52.302;4.844;2022-11-20T00:53:20;41.78;38.36;49.02;;
69611;Laerm;56817;52.302;4.844;2022-11-20T00:53:30;42.55;39.71;45.91;;
69611;Laerm;56817;52.302;4.844;2022-11-20T00:53:41;41.32;38.72;43.78;;
69611;Laerm;56817;52.302;4.844;2022-11-20T00:53:51;41.95;38.79;46.32;;
69611;Laerm;56817;52.302;4.844;2022-11-20T00:54:02;42.56;39.93;47.09;;
69611;Laerm;56817;52.302;4.844;2022-11-20T00:54:12;41.17;38.62;43.54;;
69611;Laerm;56817;52.302;4.844;2022-11-20T00:54:22;41.06;38.28;45.64;;
69611;Laerm;56817;52.302;4.844;2022-11-20T00:54:33;42.75;39.67;49.66;;
69611;Laerm;56817;52.302;4.844;2022-11-20T00:54:43;40.78;37.48;46.32;;
69611;Laerm;56817;52.302;4.844;2022-11-20T00:54:53;39.53;37.00;42.70;;
69611;Laerm;56817;52.302;4.844;2022-11-20T00:55:03;43.01;38.41;47.75;;
69611;Laerm;56817;52.302;4.844;2022-11-20T00:55:14;41.19;37.99;45.88;;
69611;Laerm;56817;52.302;4.844;2022-11-20T00:55:24;41.70;38.02;45.57;;
69611;Laerm;56817;52.302;4.844;2022-11-20T00:55:34;42.20;38.20;47.12;;
69611;Laerm;56817;52.302;4.844;2022-11-20T00:55:54;42.05;39.34;50.05;;
69611;Laerm;56817;52.302;4.844;2022-11-20T00:56:06;41.67;37.44;48.44;;
69611;Laerm;56817;52.302;4.844;2022-11-20T00:56:18;41.92;38.33;48.65;;
69611;Laerm;56817;52.302;4.844;2022-11-20T00:56:28;44.84;41.57;50.87;;
69611;Laerm;56817;52.302;4.844;2022-11-20T00:56:38;41.59;38.07;46.41;;
69611;Laerm;56817;52.302;4.844;2022-11-20T00:56:50;44.44;38.24;57.91;;
69611;Laerm;56817;52.302;4.844;2022-11-20T00:57:02;42.82;39.34;47.98;;
69611;Laerm;56817;52.302;4.844;2022-11-20T00:57:12;44.32;39.21;51.63;;
69611;Laerm;56817;52.302;4.844;2022-11-20T00:57:22;41.52;38.02;48.10;;
69611;Laerm;56817;52.302;4.844;2022-11-20T00:57:33;41.67;38.88;45.21;;
69611;Laerm;56817;52.302;4.844;2022-11-20T00:57:43;43.38;39.20;45.97;;
69611;Laerm;56817;52.302;4.844;2022-11-20T00:57:53;44.44;40.94;47.66;;
69611;Laerm;56817;52.302;4.844;2022-11-20T00:58:03;41.95;38.48;47.89;;
69611;Laerm;56817;52.302;4.844;2022-11-20T00:58:14;42.15;38.73;45.90;;
69611;Laerm;56817;52.302;4.844;2022-11-20T00:58:25;42.21;38.53;46.15;;
69611;Laerm;56817;52.302;4.844;2022-11-20T00:58:39;41.02;37.35;45.34;;
69611;Laerm;56817;52.302;4.844;2022-11-20T00:58:50;40.56;36.86;47.27;;
69611;Laerm;56817;52.302;4.844;2022-11-20T00:59:00;44.65;40.23;51.34;;
69611;Laerm;56817;52.302;4.844;2022-11-20T00:59:11;43.47;39.28;48.04;;
69611;Laerm;56817;52.302;4.844;2022-11-20T00:59:21;45.30;40.04;50.06;;
69611;Laerm;56817;52.302;4.844;2022-11-20T00:59:31;43.77;39.16;49.25;;
69611;Laerm;56817;52.302;4.844;2022-11-20T00:59:41;44.32;40.90;49.09;;
69611;Laerm;56817;52.302;4.844;2022-11-20T00:59:52;45.84;42.12;51.37;;